createdAt,value
2016-09-01T00:00:11.160Z,0
2016-09-01T00:01:22.734Z,0
2016-09-01T00:02:35.007Z,0
2016-09-01T00:03:45.873Z,0
2016-09-01T00:04:57.453Z,0
2016-09-01T00:06:08.300Z,0
2016-09-01T00:07:19.854Z,0
2016-09-01T00:08:32.105Z,0
2016-09-01T00:09:44.370Z,0
2016-09-01T00:10:55.248Z,0
2016-09-01T00:12:07.515Z,0
2016-09-01T00:13:19.773Z,0
2016-09-01T00:14:32.034Z,0
2016-09-01T00:15:43.583Z,0
2016-09-01T00:16:55.134Z,0
2016-09-01T00:18:05.989Z,0
2016-09-01T00:19:18.256Z,0
2016-09-01T00:20:30.513Z,0
2016-09-01T00:21:41.364Z,0
2016-09-01T00:22:53.626Z,0
2016-09-01T00:24:05.908Z,0
2016-09-01T00:25:18.184Z,0
2016-09-01T00:26:30.442Z,0
2016-09-01T00:27:41.993Z,0
2016-09-01T00:28:54.265Z,0
2016-09-01T00:30:07.287Z,0
2016-09-01T00:31:19.549Z,0
2016-09-01T00:32:31.801Z,0
2016-09-01T00:33:41.959Z,0
2016-09-01T00:34:53.548Z,0
2016-09-01T00:36:04.410Z,0
2016-09-01T00:37:15.974Z,0
2016-09-01T00:38:28.259Z,0
2016-09-01T00:39:40.546Z,0
2016-09-01T00:40:52.803Z,0
2016-09-01T00:42:05.071Z,0
2016-09-01T00:43:17.346Z,0
2016-09-01T00:44:27.513Z,0
2016-09-01T00:45:39.784Z,0
2016-09-01T00:46:51.337Z,0
2016-09-01T00:48:02.889Z,0
2016-09-01T00:49:13.756Z,0
2016-09-01T00:50:25.311Z,0
2016-09-01T00:51:36.188Z,0
2016-09-01T00:52:47.746Z,0
2016-09-01T00:53:59.292Z,0
2016-09-01T00:55:11.560Z,0
2016-09-01T00:56:23.829Z,0
2016-09-01T00:57:36.102Z,0
2016-09-01T00:58:48.369Z,0
2016-09-01T01:00:00.619Z,0
2016-09-01T01:01:12.190Z,0
2016-09-01T01:02:23.046Z,0
2016-09-01T01:03:35.300Z,0
2016-09-01T01:04:46.856Z,0
2016-09-01T01:05:59.108Z,0
2016-09-01T01:07:11.367Z,0
2016-09-01T01:08:21.518Z,0
2016-09-01T01:09:33.068Z,0
2016-09-01T01:10:45.328Z,0
2016-09-01T01:11:57.586Z,0
2016-09-01T01:13:08.450Z,0
2016-09-01T01:14:20.022Z,0
2016-09-01T01:15:31.568Z,0
2016-09-01T01:16:42.411Z,0
2016-09-01T01:17:53.257Z,0
2016-09-01T01:19:04.809Z,0
2016-09-01T01:20:17.065Z,0
2016-09-01T01:21:29.332Z,0
2016-09-01T01:22:40.909Z,0
2016-09-01T01:23:53.190Z,0
2016-09-01T01:25:04.738Z,0
2016-09-01T01:26:16.992Z,0
2016-09-01T01:27:27.841Z,0
2016-09-01T01:28:39.403Z,0
2016-09-01T01:29:51.674Z,0
2016-09-01T01:31:03.927Z,0
2016-09-01T01:32:15.505Z,0
2016-09-01T01:33:27.753Z,0
2016-09-01T01:34:40.001Z,0
2016-09-01T01:35:50.159Z,0
2016-09-01T01:37:02.425Z,0
2016-09-01T01:38:14.703Z,0
2016-09-01T01:39:25.563Z,0
2016-09-01T01:40:36.424Z,0
2016-09-01T01:41:47.283Z,0
2016-09-01T01:42:58.141Z,0
2016-09-01T01:44:10.396Z,0
2016-09-01T01:45:22.696Z,0
2016-09-01T01:46:33.556Z,0
2016-09-01T01:47:44.405Z,0
2016-09-01T01:48:55.958Z,0
2016-09-01T01:50:07.515Z,0
2016-09-01T01:51:18.377Z,0
2016-09-01T01:52:28.541Z,0
2016-09-01T01:53:40.836Z,0
2016-09-01T01:54:52.383Z,0
2016-09-01T01:56:04.643Z,0
2016-09-01T01:57:16.894Z,0
2016-09-01T01:58:29.188Z,0
2016-09-01T01:59:40.734Z,0
2016-09-01T02:00:52.306Z,0
2016-09-01T02:02:04.580Z,0
2016-09-01T02:03:16.139Z,0
2016-09-01T02:04:28.411Z,0
2016-09-01T02:05:39.498Z,0
2016-09-01T02:06:51.770Z,0
2016-09-01T02:08:04.041Z,0
2016-09-01T02:09:16.290Z,0
2016-09-01T02:10:28.564Z,0
2016-09-01T02:11:40.221Z,0
2016-09-01T02:12:51.083Z,0
2016-09-01T02:14:03.346Z,0
2016-09-01T02:15:14.771Z,0
2016-09-01T02:16:27.037Z,0
2016-09-01T02:17:39.286Z,0
2016-09-01T02:18:51.532Z,0
2016-09-01T02:20:03.099Z,0
2016-09-01T02:21:13.267Z,0
2016-09-01T02:22:24.823Z,0
2016-09-01T02:23:36.379Z,0
2016-09-01T02:24:47.224Z,0
2016-09-01T02:25:59.496Z,0
2016-09-01T02:27:11.760Z,0
2016-09-01T02:28:24.026Z,0
2016-09-01T02:29:35.597Z,0
2016-09-01T02:30:47.868Z,0
2016-09-01T02:31:58.728Z,0
2016-09-01T02:33:10.292Z,0
2016-09-01T02:34:21.840Z,0
2016-09-01T02:35:34.089Z,0
2016-09-01T02:36:45.647Z,0
2016-09-01T02:37:57.916Z,0
2016-09-01T02:39:09.479Z,0
2016-09-01T02:40:21.832Z,0
2016-09-01T02:41:32.696Z,0
2016-09-01T02:42:42.838Z,0
2016-09-01T02:43:54.403Z,0
2016-09-01T02:45:05.417Z,0
2016-09-01T02:46:16.977Z,0
2016-09-01T02:47:28.536Z,0
2016-09-01T02:48:40.082Z,0
2016-09-01T02:49:50.938Z,0
2016-09-01T02:51:03.191Z,0
2016-09-01T02:52:14.742Z,0
2016-09-01T02:53:27.008Z,0
2016-09-01T02:54:39.283Z,0
2016-09-01T02:55:50.831Z,0
2016-09-01T02:57:02.440Z,0
2016-09-01T02:58:14.710Z,0
2016-09-01T02:59:26.262Z,0
2016-09-01T03:00:38.523Z,0
2016-09-01T03:32:36.151Z,0
2016-09-01T03:33:47.688Z,0
2016-09-01T03:34:59.236Z,0
2016-09-01T03:36:11.485Z,0
2016-09-01T03:37:23.029Z,0
2016-09-01T03:38:35.275Z,0
2016-09-01T03:39:46.827Z,0
2016-09-01T03:40:59.093Z,0
2016-09-01T03:42:10.630Z,0
2016-09-01T03:43:21.485Z,0
2016-09-01T03:44:33.744Z,0
2016-09-01T03:45:45.998Z,0
2016-09-01T03:46:58.260Z,0
2016-09-01T03:48:09.095Z,0
2016-09-01T03:49:21.380Z,0
2016-09-01T03:50:33.643Z,0
2016-09-01T03:51:45.921Z,0
2016-09-01T03:52:58.196Z,0
2016-09-01T03:54:10.453Z,0
2016-09-01T03:55:22.708Z,0
2016-09-01T03:56:34.966Z,0
2016-09-01T03:57:46.503Z,0
2016-09-01T03:58:57.353Z,0
2016-09-01T04:00:07.520Z,0
2016-09-01T04:01:19.767Z,0
2016-09-01T04:02:32.040Z,0
2016-09-01T04:03:43.602Z,0
2016-09-01T04:04:55.863Z,0
2016-09-01T04:06:08.115Z,0
2016-09-01T04:07:19.661Z,0
2016-09-01T04:08:31.925Z,0
2016-09-01T04:09:44.173Z,5
2016-09-01T04:10:55.728Z,5
2016-09-01T04:12:07.278Z,5
2016-09-01T04:13:19.536Z,5
2016-09-01T04:14:31.794Z,5
2016-09-01T04:15:42.669Z,5
2016-09-01T04:16:54.923Z,5
2016-09-01T04:18:07.178Z,10
2016-09-01T04:19:18.755Z,10
2016-09-01T04:20:30.307Z,10
2016-09-01T04:21:42.560Z,10
2016-09-01T04:22:54.820Z,15
2016-09-01T04:24:06.371Z,15
2016-09-01T04:25:17.224Z,15
2016-09-01T04:26:28.790Z,15
2016-09-01T04:27:40.339Z,20
2016-09-01T04:28:51.907Z,20
2016-09-01T04:30:03.450Z,45
2016-09-01T04:31:15.720Z,55
2016-09-01T04:32:27.988Z,55
2016-09-01T04:33:38.846Z,70
2016-09-01T04:34:51.107Z,80
2016-09-01T04:36:02.674Z,90
2016-09-01T04:37:14.230Z,95
2016-09-01T04:38:26.500Z,100
2016-09-01T04:39:38.757Z,105
2016-09-01T04:40:50.341Z,110
2016-09-01T04:42:01.909Z,115
2016-09-01T04:43:14.180Z,120
2016-09-01T04:44:26.431Z,125
2016-09-01T04:45:38.704Z,130
2016-09-01T04:46:50.962Z,130
2016-09-01T04:48:03.219Z,140
2016-09-01T04:49:15.499Z,145
2016-09-01T04:50:27.778Z,155
2016-09-01T04:51:39.337Z,155
2016-09-01T04:52:50.901Z,160
2016-09-01T04:54:01.731Z,165
2016-09-01T04:55:13.417Z,170
2016-09-01T04:56:25.685Z,175
2016-09-01T04:57:37.241Z,175
2016-09-01T04:58:48.107Z,175
2016-09-01T05:00:00.379Z,180
2016-09-01T05:01:12.661Z,185
2016-09-01T05:02:24.916Z,190
2016-09-01T05:03:36.471Z,195
2016-09-01T05:04:48.037Z,195
2016-09-01T05:06:00.324Z,195
2016-09-01T05:07:12.591Z,200
2016-09-01T05:08:24.856Z,200
2016-09-01T05:09:37.122Z,205
2016-09-01T05:10:49.390Z,210
2016-09-01T05:12:01.658Z,215
2016-09-01T05:13:13.235Z,215
2016-09-01T05:14:25.497Z,220
2016-09-01T05:15:36.348Z,225
2016-09-01T05:16:47.901Z,225
2016-09-01T05:18:00.168Z,230
2016-09-01T05:19:12.453Z,220
2016-09-01T05:20:24.024Z,215
2016-09-01T05:21:36.281Z,210
2016-09-01T05:22:45.715Z,210
2016-09-01T05:23:56.576Z,155
2016-09-01T05:25:08.847Z,95
2016-09-01T05:26:21.110Z,90
2016-09-01T05:27:33.361Z,95
2016-09-01T05:28:44.211Z,95
2016-09-01T05:29:55.789Z,90
2016-09-01T05:31:07.433Z,95
2016-09-01T05:32:18.990Z,90
2016-09-01T05:33:30.575Z,105
2016-09-01T05:34:42.135Z,150
2016-09-01T05:35:53.708Z,205
2016-09-01T05:37:05.275Z,210
2016-09-01T05:38:14.741Z,210
2016-09-01T05:39:27.004Z,195
2016-09-01T05:40:38.555Z,135
2016-09-01T05:41:50.128Z,100
2016-09-01T05:43:00.993Z,100
2016-09-01T05:44:13.391Z,100
2016-09-01T05:45:27.052Z,105
2016-09-01T05:46:39.319Z,140
2016-09-01T05:47:51.576Z,190
2016-09-01T05:49:03.153Z,170
2016-09-01T05:50:15.418Z,135
2016-09-01T05:51:26.976Z,115
2016-09-01T05:52:38.546Z,110
2016-09-01T05:53:50.803Z,135
2016-09-01T05:55:03.088Z,165
2016-09-01T05:56:14.663Z,175
2016-09-01T05:57:26.226Z,160
2016-09-01T05:58:37.836Z,130
2016-09-01T05:59:49.410Z,115
2016-09-01T06:01:01.315Z,115
2016-09-01T06:02:12.897Z,125
2016-09-01T06:03:25.164Z,145
2016-09-01T06:04:35.337Z,155
2016-09-01T06:05:47.607Z,145
2016-09-01T06:06:59.164Z,125
2016-09-01T06:08:09.324Z,120
2016-09-01T06:09:20.904Z,120
2016-09-01T06:10:32.466Z,120
2016-09-01T06:11:44.745Z,125
2016-09-01T06:12:55.636Z,135
2016-09-01T06:14:06.604Z,140
2016-09-01T06:15:18.170Z,125
2016-09-01T06:16:30.827Z,120
2016-09-01T06:17:41.681Z,120
2016-09-01T06:18:53.962Z,120
2016-09-01T06:20:05.853Z,120
2016-09-01T06:21:16.723Z,120
2016-09-01T06:22:27.616Z,120
2016-09-01T06:23:39.180Z,120
2016-09-01T06:24:51.452Z,120
2016-09-01T06:26:02.322Z,120
2016-09-01T06:27:13.894Z,125
2016-09-01T06:28:26.181Z,125
2016-09-01T06:29:37.762Z,125
2016-09-01T06:30:50.035Z,125
2016-09-01T06:32:00.919Z,125
2016-09-01T06:33:12.483Z,130
2016-09-01T06:34:24.749Z,130
2016-09-01T06:35:35.611Z,130
2016-09-01T06:36:47.158Z,130
2016-09-01T06:37:58.755Z,130
2016-09-01T06:39:11.053Z,130
2016-09-01T06:40:21.333Z,135
2016-09-01T06:41:33.598Z,135
2016-09-01T06:42:45.277Z,135
2016-09-01T06:43:56.129Z,135
2016-09-01T06:45:07.631Z,135
2016-09-01T06:46:19.197Z,135
2016-09-01T06:47:30.777Z,140
2016-09-01T06:48:41.632Z,140
2016-09-01T06:49:53.205Z,140
2016-09-01T06:51:05.491Z,140
2016-09-01T06:52:17.065Z,140
2016-09-01T06:53:27.289Z,140
2016-09-01T06:54:39.559Z,140
2016-09-01T06:55:51.136Z,145
2016-09-01T06:57:02.702Z,145
2016-09-01T06:58:12.865Z,145
2016-09-01T06:59:24.471Z,145
2016-09-01T07:00:36.027Z,145
2016-09-01T07:01:47.590Z,145
2016-09-01T07:02:59.848Z,145
2016-09-01T07:04:11.428Z,145
2016-09-01T07:05:24.015Z,145
2016-09-01T07:06:35.227Z,150
2016-09-01T07:07:46.785Z,150
2016-09-01T07:08:58.382Z,150
2016-09-01T07:10:09.262Z,150
2016-09-01T07:11:20.141Z,150
2016-09-01T07:12:32.407Z,150
2016-09-01T07:13:43.989Z,150
2016-09-01T07:14:55.545Z,155
2016-09-01T07:16:06.414Z,155
2016-09-01T07:17:17.273Z,155
2016-09-01T07:18:27.464Z,155
2016-09-01T07:19:39.021Z,155
2016-09-01T07:20:48.482Z,155
2016-09-01T07:22:01.197Z,155
2016-09-01T07:23:12.073Z,155
2016-09-01T07:24:23.637Z,155
2016-09-01T07:25:35.210Z,160
2016-09-01T07:26:47.496Z,160
2016-09-01T07:27:59.058Z,160
2016-09-01T07:29:11.382Z,160
2016-09-01T07:30:23.032Z,160
2016-09-01T07:31:33.199Z,160
2016-09-01T07:32:43.460Z,165
2016-09-01T07:33:55.045Z,160
2016-09-01T07:35:05.465Z,160
2016-09-01T07:36:17.726Z,160
2016-09-01T07:37:27.886Z,160
2016-09-01T07:38:39.485Z,160
2016-09-01T07:39:51.046Z,160
2016-09-01T07:41:01.203Z,165
2016-09-01T07:42:12.789Z,165
2016-09-01T07:43:25.052Z,165
2016-09-01T07:44:37.318Z,165
2016-09-01T07:45:48.888Z,165
2016-09-01T07:47:00.462Z,165
2016-09-01T07:48:12.726Z,165
2016-09-01T07:49:24.290Z,165
2016-09-01T07:50:35.846Z,165
2016-09-01T07:51:47.443Z,170
2016-09-01T07:52:59.740Z,170
2016-09-01T07:54:12.013Z,170
2016-09-01T07:55:24.360Z,170
2016-09-01T07:56:35.926Z,170
2016-09-01T07:57:46.802Z,170
2016-09-01T07:58:59.064Z,175
2016-09-01T08:00:11.407Z,180
2016-09-01T08:01:22.273Z,175
2016-09-01T08:02:33.854Z,175
2016-09-01T08:03:44.722Z,175
2016-09-01T08:04:56.985Z,175
2016-09-01T08:06:09.244Z,175
2016-09-01T08:07:21.518Z,175
2016-09-01T08:08:32.373Z,175
2016-09-01T08:09:44.630Z,180
2016-09-01T08:10:56.907Z,180
2016-09-01T08:12:09.167Z,180
2016-09-01T08:13:20.728Z,180
2016-09-01T08:14:32.996Z,180
2016-09-01T08:15:44.559Z,180
2016-09-01T08:16:55.417Z,180
2016-09-01T08:18:06.265Z,185
2016-09-01T08:19:17.125Z,185
2016-09-01T08:20:28.686Z,185
2016-09-01T08:21:39.868Z,185
2016-09-01T08:22:50.730Z,185
2016-09-01T08:24:02.351Z,185
2016-09-01T08:25:13.083Z,185
2016-09-01T08:26:23.949Z,185
2016-09-01T08:27:36.222Z,185
2016-09-01T08:28:47.102Z,190
2016-09-01T08:29:57.264Z,190
2016-09-01T08:31:08.140Z,190
2016-09-01T08:32:19.008Z,190
2016-09-01T08:33:30.584Z,190
2016-09-01T08:34:42.137Z,190
2016-09-01T08:35:53.717Z,190
2016-09-01T08:37:04.601Z,190
2016-09-01T08:38:15.467Z,195
2016-09-01T08:39:26.328Z,195
2016-09-01T08:40:38.593Z,195
2016-09-01T08:41:50.848Z,195
2016-09-01T08:43:03.114Z,195
2016-09-01T08:44:14.002Z,195
2016-09-01T08:45:26.253Z,195
2016-09-01T08:46:37.836Z,195
2016-09-01T08:47:50.103Z,200
2016-09-01T08:49:01.668Z,200
2016-09-01T08:50:13.240Z,200
2016-09-01T08:51:24.808Z,200
2016-09-01T08:52:36.389Z,200
2016-09-01T08:53:46.540Z,200
2016-09-01T08:54:58.107Z,200
2016-09-01T08:56:08.977Z,200
2016-09-01T08:57:19.853Z,200
2016-09-01T08:58:30.712Z,205
2016-09-01T08:59:41.607Z,205
2016-09-01T09:00:53.172Z,205
2016-09-01T09:02:04.043Z,205
2016-09-01T09:03:15.609Z,205
2016-09-01T09:04:26.496Z,205
2016-09-01T09:05:38.072Z,205
2016-09-01T09:06:50.420Z,205
2016-09-01T09:08:01.983Z,210
2016-09-01T09:09:14.259Z,210
2016-09-01T09:10:23.804Z,205
2016-09-01T09:11:36.087Z,205
2016-09-01T09:12:48.363Z,210
2016-09-01T09:14:00.630Z,210
2016-09-01T09:15:12.227Z,210
2016-09-01T09:16:23.091Z,210
2016-09-01T09:17:33.255Z,210
2016-09-01T09:18:44.836Z,210
2016-09-01T09:19:57.103Z,210
2016-09-01T09:21:09.406Z,210
2016-09-01T09:22:21.682Z,210
2016-09-01T09:23:33.963Z,215
2016-09-01T09:24:46.226Z,215
2016-09-01T09:25:57.085Z,215
2016-09-01T09:27:07.310Z,215
2016-09-01T09:28:19.578Z,215
2016-09-01T09:29:30.457Z,215
2016-09-01T09:30:42.730Z,215
2016-09-01T09:31:53.586Z,215
2016-09-01T09:33:04.463Z,220
2016-09-01T09:34:16.034Z,220
2016-09-01T09:35:26.897Z,220
2016-09-01T09:36:39.168Z,220
2016-09-01T09:37:50.730Z,220
2016-09-01T09:39:01.594Z,220
2016-09-01T09:40:13.164Z,220
2016-09-01T09:41:24.032Z,220
2016-09-01T09:42:34.889Z,220
2016-09-01T09:43:46.450Z,220
2016-09-01T09:44:58.717Z,225
2016-09-01T09:46:10.292Z,225
2016-09-01T09:47:21.860Z,225
2016-09-01T09:48:33.420Z,225
2016-09-01T09:49:44.298Z,225
2016-09-01T09:50:55.866Z,225
2016-09-01T09:52:07.441Z,225
2016-09-01T09:53:18.313Z,225
2016-09-01T09:54:29.182Z,225
2016-09-01T09:55:40.081Z,225
2016-09-01T09:56:52.354Z,225
2016-09-01T09:58:03.926Z,230
2016-09-01T09:59:15.508Z,230
2016-09-01T10:00:27.794Z,230
2016-09-01T10:01:37.973Z,230
2016-09-01T10:02:49.554Z,230
2016-09-01T10:04:00.416Z,235
2016-09-01T10:05:12.462Z,230
2016-09-01T10:06:24.729Z,230
2016-09-01T10:07:36.991Z,230
2016-09-01T10:08:49.272Z,230
2016-09-01T10:10:00.845Z,230
2016-09-01T10:11:12.409Z,230
2016-09-01T10:12:24.693Z,230
2016-09-01T10:13:36.250Z,230
2016-09-01T10:14:47.824Z,230
2016-09-01T10:15:59.397Z,230
2016-09-01T10:17:11.705Z,230
2016-09-01T10:18:23.991Z,230
2016-09-01T10:19:34.874Z,230
2016-09-01T10:20:45.735Z,230
2016-09-01T10:21:58.010Z,230
2016-09-01T10:23:09.834Z,230
2016-09-01T10:24:22.155Z,230
2016-09-01T10:25:33.033Z,230
2016-09-01T10:26:43.914Z,230
2016-09-01T10:27:54.780Z,230
2016-09-01T10:29:06.377Z,230
2016-09-01T10:30:17.249Z,230
2016-09-01T10:31:28.815Z,235
2016-09-01T10:32:40.383Z,235
2016-09-01T10:33:51.950Z,235
2016-09-01T10:35:03.610Z,235
2016-09-01T10:36:15.893Z,235
2016-09-01T10:37:26.750Z,235
2016-09-01T10:38:38.322Z,235
2016-09-01T10:39:49.907Z,235
2016-09-01T10:41:01.473Z,235
2016-09-01T10:42:13.746Z,230
2016-09-01T10:43:25.311Z,235
2016-09-01T10:44:35.487Z,235
2016-09-01T10:45:46.365Z,235
2016-09-01T10:46:58.658Z,235
2016-09-01T10:48:09.666Z,240
2016-09-01T10:49:21.942Z,235
2016-09-01T10:50:34.585Z,240
2016-09-01T10:51:46.097Z,240
2016-09-01T10:52:57.688Z,240
2016-09-01T10:54:08.556Z,240
2016-09-01T10:55:20.948Z,245
2016-09-01T10:56:32.532Z,240
2016-09-01T10:57:44.105Z,240
2016-09-01T10:58:55.689Z,245
2016-09-01T11:00:07.279Z,245
2016-09-01T11:01:18.146Z,245
2016-09-01T11:02:29.821Z,245
2016-09-01T11:03:41.394Z,240
2016-09-01T11:04:53.680Z,240
2016-09-01T11:06:04.533Z,245
2016-09-01T11:07:16.098Z,245
2016-09-01T11:08:27.660Z,245
2016-09-01T11:09:39.227Z,245
2016-09-01T11:10:50.836Z,245
2016-09-01T11:12:03.106Z,245
2016-09-01T11:13:14.658Z,245
2016-09-01T11:14:24.827Z,245
2016-09-01T11:15:37.103Z,245
2016-09-01T11:16:47.970Z,250
2016-09-01T11:18:00.244Z,250
2016-09-01T11:19:11.123Z,255
2016-09-01T11:20:22.694Z,250
2016-09-01T11:21:32.875Z,250
2016-09-01T11:22:44.481Z,250
2016-09-01T11:23:55.684Z,250
2016-09-01T11:25:06.546Z,250
2016-09-01T11:26:18.138Z,250
2016-09-01T11:27:30.414Z,250
2016-09-01T11:28:41.985Z,250
2016-09-01T11:29:52.873Z,255
2016-09-01T11:31:03.031Z,255
2016-09-01T11:32:13.886Z,255
2016-09-01T11:33:24.758Z,255
2016-09-01T11:34:35.624Z,250
2016-09-01T11:35:47.188Z,250
2016-09-01T11:36:58.760Z,255
2016-09-01T11:38:10.326Z,255
2016-09-01T11:39:21.896Z,255
2016-09-01T11:40:32.789Z,255
2016-09-01T11:41:45.061Z,255
2016-09-01T11:42:57.338Z,255
2016-09-01T11:44:09.605Z,255
2016-09-01T11:45:21.928Z,255
2016-09-01T11:46:34.218Z,255
2016-09-01T11:47:45.090Z,255
2016-09-01T11:48:55.980Z,255
2016-09-01T11:50:06.943Z,250
2016-09-01T11:51:17.809Z,250
2016-09-01T11:52:28.691Z,255
2016-09-01T11:53:40.276Z,255
2016-09-01T11:54:51.850Z,260
2016-09-01T11:56:02.714Z,255
2016-09-01T11:57:13.614Z,255
2016-09-01T11:58:25.202Z,255
2016-09-01T11:59:36.062Z,255
2016-09-01T12:00:48.335Z,255
2016-09-01T12:01:59.206Z,260
2016-09-01T12:03:10.808Z,265
2016-09-01T12:04:23.119Z,260
2016-09-01T12:05:35.411Z,260
2016-09-01T12:06:46.998Z,255
2016-09-01T12:07:59.030Z,255
2016-09-01T12:09:11.308Z,255
2016-09-01T12:10:22.189Z,255
2016-09-01T12:11:33.059Z,260
2016-09-01T12:12:44.625Z,260
2016-09-01T12:13:56.889Z,260
2016-09-01T12:15:07.087Z,260
2016-09-01T12:16:18.651Z,260
2016-09-01T12:17:29.514Z,260
2016-09-01T12:18:41.786Z,260
2016-09-01T12:19:53.361Z,260
2016-09-01T12:21:04.939Z,255
2016-09-01T12:22:16.538Z,255
2016-09-01T12:23:28.847Z,255
2016-09-01T12:24:41.184Z,255
2016-09-01T12:25:52.751Z,255
2016-09-01T12:27:03.621Z,255
2016-09-01T12:28:15.193Z,255
2016-09-01T12:29:27.468Z,255
2016-09-01T12:30:39.052Z,255
2016-09-01T12:31:49.915Z,255
2016-09-01T12:33:02.199Z,255
2016-09-01T12:34:14.479Z,255
2016-09-01T12:35:26.807Z,250
2016-09-01T12:36:39.084Z,250
2016-09-01T12:37:49.940Z,250
2016-09-01T12:39:02.218Z,245
2016-09-01T12:40:14.552Z,250
2016-09-01T12:41:26.111Z,245
2016-09-01T12:42:36.981Z,245
2016-09-01T12:43:49.483Z,245
2016-09-01T12:45:02.806Z,245
2016-09-01T12:46:13.663Z,245
2016-09-01T12:47:25.367Z,245
2016-09-01T12:48:36.956Z,245
2016-09-01T12:49:47.854Z,245
2016-09-01T12:51:00.146Z,240
2016-09-01T12:52:11.711Z,240
2016-09-01T12:53:23.031Z,240
2016-09-01T12:54:34.610Z,240
2016-09-01T12:55:46.907Z,235
2016-09-01T12:56:59.187Z,235
2016-09-01T12:58:10.754Z,235
2016-09-01T12:59:22.310Z,235
2016-09-01T13:00:34.589Z,235
2016-09-01T13:01:44.758Z,235
2016-09-01T13:02:56.321Z,235
2016-09-01T13:04:07.919Z,230
2016-09-01T13:05:20.204Z,235
2016-09-01T13:06:32.541Z,230
2016-09-01T13:07:43.423Z,230
2016-09-01T13:08:55.005Z,230
2016-09-01T13:10:05.851Z,230
2016-09-01T13:11:15.999Z,230
2016-09-01T13:12:26.866Z,230
2016-09-01T13:13:38.498Z,230
2016-09-01T13:14:49.363Z,230
2016-09-01T13:16:00.936Z,230
2016-09-01T13:17:12.518Z,225
2016-09-01T13:18:24.100Z,225
2016-09-01T13:19:35.672Z,225
2016-09-01T13:20:47.247Z,225
2016-09-01T13:21:56.731Z,225
2016-09-01T13:23:08.312Z,225
2016-09-01T13:24:18.466Z,225
2016-09-01T13:25:30.041Z,220
2016-09-01T13:26:41.691Z,220
2016-09-01T13:27:53.266Z,225
2016-09-01T13:29:03.426Z,225
2016-09-01T13:30:15.209Z,225
2016-09-01T13:31:26.091Z,225
2016-09-01T13:32:36.952Z,225
2016-09-01T13:33:47.827Z,225
2016-09-01T13:34:59.419Z,225
2016-09-01T13:36:10.297Z,220
2016-09-01T13:37:21.213Z,220
2016-09-01T13:38:32.078Z,220
2016-09-01T13:39:43.656Z,220
2016-09-01T13:40:55.933Z,220
2016-09-01T13:42:07.525Z,215
2016-09-01T13:43:19.095Z,215
2016-09-01T13:44:30.655Z,220
2016-09-01T13:45:41.515Z,215
2016-09-01T13:46:53.085Z,220
2016-09-01T13:48:04.673Z,215
2016-09-01T13:49:15.537Z,205
2016-09-01T13:50:26.392Z,210
2016-09-01T13:51:37.960Z,215
2016-09-01T13:52:48.851Z,215
2016-09-01T13:54:00.432Z,210
2016-09-01T13:55:11.999Z,210
2016-09-01T13:56:23.571Z,210
2016-09-01T13:57:35.852Z,210
2016-09-01T13:58:48.129Z,210
2016-09-01T14:00:00.397Z,210
2016-09-01T14:01:11.957Z,210
2016-09-01T14:02:23.519Z,210
2016-09-01T14:03:34.394Z,205
2016-09-01T14:04:45.254Z,205
2016-09-01T14:05:56.959Z,205
2016-09-01T14:07:07.843Z,205
2016-09-01T14:08:18.703Z,210
2016-09-01T14:09:29.566Z,205
2016-09-01T14:10:41.845Z,200
2016-09-01T14:11:52.713Z,200
2016-09-01T14:13:05.002Z,200
2016-09-01T14:14:15.877Z,200
2016-09-01T14:15:26.064Z,200
2016-09-01T14:16:36.961Z,195
2016-09-01T14:17:49.246Z,195
2016-09-01T14:19:00.126Z,195
2016-09-01T14:20:12.278Z,195
2016-09-01T14:21:23.176Z,195
2016-09-01T14:22:34.777Z,195
2016-09-01T14:23:47.058Z,190
2016-09-01T14:24:58.623Z,190
2016-09-01T14:26:10.900Z,190
2016-09-01T14:27:21.774Z,190
2016-09-01T14:28:32.644Z,190
2016-09-01T14:29:44.938Z,190
2016-09-01T14:30:55.845Z,185
2016-09-01T14:32:07.426Z,185
2016-09-01T14:33:19.001Z,185
2016-09-01T14:34:29.151Z,185
2016-09-01T14:35:40.925Z,180
2016-09-01T14:36:52.492Z,180
2016-09-01T14:38:04.795Z,180
2016-09-01T14:39:16.385Z,180
2016-09-01T14:40:28.663Z,180
2016-09-01T14:41:41.304Z,180
2016-09-01T14:42:53.952Z,175
2016-09-01T14:44:04.131Z,175
2016-09-01T14:45:15.718Z,175
2016-09-01T14:46:28.017Z,170
2016-09-01T14:47:39.593Z,170
2016-09-01T14:48:51.877Z,170
2016-09-01T14:50:02.750Z,170
2016-09-01T14:51:14.342Z,170
2016-09-01T14:52:27.163Z,165
2016-09-01T14:53:38.735Z,165
2016-09-01T14:54:51.001Z,165
2016-09-01T14:56:01.890Z,165
2016-09-01T14:57:13.590Z,165
2016-09-01T14:58:23.767Z,160
2016-09-01T14:59:36.051Z,165
2016-09-01T15:00:46.921Z,160
2016-09-01T15:01:58.743Z,160
2016-09-01T15:03:11.024Z,160
2016-09-01T15:04:23.291Z,160
2016-09-01T15:05:34.158Z,160
2016-09-01T15:06:45.725Z,160
2016-09-01T15:07:56.631Z,160
2016-09-01T15:09:08.914Z,155
2016-09-01T15:10:20.550Z,155
2016-09-01T15:11:32.133Z,155
2016-09-01T15:12:43.719Z,155
2016-09-01T15:13:55.290Z,150
2016-09-01T15:15:06.873Z,150
2016-09-01T15:16:17.744Z,150
2016-09-01T15:17:30.011Z,150
2016-09-01T15:18:41.592Z,150
2016-09-01T15:19:53.884Z,145
2016-09-01T15:21:06.171Z,145
2016-09-01T15:22:17.763Z,145
2016-09-01T15:23:28.644Z,145
2016-09-01T15:24:39.545Z,145
2016-09-01T15:25:51.114Z,140
2016-09-01T15:27:03.389Z,140
2016-09-01T15:28:13.556Z,140
2016-09-01T15:29:25.157Z,140
2016-09-01T15:30:37.435Z,135
2016-09-01T15:31:49.718Z,135
2016-09-01T15:33:01.984Z,135
2016-09-01T15:34:13.555Z,135
2016-09-01T15:35:25.117Z,130
2016-09-01T15:36:35.994Z,130
2016-09-01T15:37:47.561Z,130
2016-09-01T15:38:58.418Z,130
2016-09-01T15:40:08.574Z,125
2016-09-01T15:41:20.153Z,125
2016-09-01T15:42:31.029Z,125
2016-09-01T15:43:41.896Z,125
2016-09-01T15:44:52.771Z,120
2016-09-01T15:46:02.936Z,120
2016-09-01T15:47:14.526Z,120
2016-09-01T15:48:26.793Z,120
2016-09-01T15:49:38.382Z,115
2016-09-01T15:50:49.976Z,115
2016-09-01T15:52:02.263Z,115
2016-09-01T15:53:13.144Z,115
2016-09-01T15:54:24.707Z,110
2016-09-01T15:55:35.747Z,110
2016-09-01T15:56:47.329Z,110
2016-09-01T15:57:58.200Z,110
2016-09-01T15:59:09.772Z,110
2016-09-01T16:00:21.421Z,110
2016-09-01T16:01:31.593Z,110
2016-09-01T16:02:42.466Z,110
2016-09-01T16:03:54.049Z,105
2016-09-01T16:05:06.057Z,90
2016-09-01T16:06:18.319Z,100
2016-09-01T16:07:29.895Z,100
2016-09-01T16:08:40.781Z,100
2016-09-01T16:09:53.063Z,100
2016-09-01T16:11:04.647Z,95
2016-09-01T16:12:14.816Z,95
2016-09-01T16:13:26.394Z,95
2016-09-01T16:14:37.975Z,90
2016-09-01T16:15:48.133Z,90
2016-09-01T16:17:00.400Z,90
2016-09-01T16:18:12.000Z,80
2016-09-01T16:19:24.277Z,85
2016-09-01T16:20:35.145Z,85
2016-09-01T16:21:46.700Z,85
2016-09-01T16:22:57.619Z,85
2016-09-01T16:24:09.316Z,85
2016-09-01T16:25:20.890Z,85
2016-09-01T16:26:33.149Z,85
2016-09-01T16:27:44.710Z,85
2016-09-01T16:28:56.988Z,85
2016-09-01T16:30:07.867Z,85
2016-09-01T16:31:19.485Z,85
2016-09-01T16:32:31.067Z,80
2016-09-01T16:33:42.643Z,80
2016-09-01T16:35:23.374Z,80
2016-09-01T16:36:34.942Z,80
2016-09-01T16:37:45.816Z,75
2016-09-01T16:38:56.670Z,75
2016-09-01T16:40:08.990Z,75
2016-09-01T16:41:19.161Z,70
2016-09-01T16:42:30.744Z,70
2016-09-01T16:43:41.624Z,65
2016-09-01T16:44:51.790Z,65
2016-09-01T16:46:04.062Z,65
2016-09-01T16:47:16.333Z,60
2016-09-01T16:48:28.626Z,55
2016-09-01T16:49:40.193Z,55
2016-09-01T16:50:52.459Z,55
2016-09-01T16:52:04.922Z,55
2016-09-01T16:53:17.219Z,55
2016-09-01T16:54:28.924Z,50
2016-09-01T16:55:39.106Z,45
2016-09-01T16:56:49.278Z,45
2016-09-01T16:58:00.246Z,45
2016-09-01T16:59:11.136Z,40
2016-09-01T17:00:23.411Z,40
2016-09-01T17:01:34.283Z,35
2016-09-01T17:02:46.584Z,35
2016-09-01T17:03:58.168Z,35
2016-09-01T17:05:08.701Z,30
2016-09-01T17:06:18.159Z,30
2016-09-01T17:07:29.723Z,30
2016-09-01T17:08:42.001Z,25
2016-09-01T17:09:53.570Z,25
2016-09-01T17:11:05.129Z,25
2016-09-01T17:12:16.699Z,20
2016-09-01T17:13:28.980Z,20
2016-09-01T17:14:39.848Z,20